sensor_id;sensor_type;location;lat;lon;timestamp;P1;durP1;ratioP1;P2;durP2;ratioP2
15043;SDS011;7619;48.562;8.910;2023-03-16T00:00:09;5.60;;;4.07;;
15043;SDS011;7619;48.562;8.910;2023-03-16T00:02:39;8.70;;;4.83;;
15043;SDS011;7619;48.562;8.910;2023-03-16T00:05:07;7.97;;;4.60;;
15043;SDS011;7619;48.562;8.910;2023-03-16T00:07:35;7.50;;;4.77;;
15043;SDS011;7619;48.562;8.910;2023-03-16T00:10:05;5.63;;;4.13;;
15043;SDS011;7619;48.562;8.910;2023-03-16T00:12:32;9.33;;;4.37;;
15043;SDS011;7619;48.562;8.910;2023-03-16T00:15:02;9.10;;;4.53;;
15043;SDS011;7619;48.562;8.910;2023-03-16T00:17:30;7.83;;;4.93;;
15043;SDS011;7619;48.562;8.910;2023-03-16T00:20:00;8.60;;;4.93;;
15043;SDS011;7619;48.562;8.910;2023-03-16T00:22:30;7.07;;;4.50;;
15043;SDS011;7619;48.562;8.910;2023-03-16T00:24:58;7.13;;;4.37;;
15043;SDS011;7619;48.562;8.910;2023-03-16T00:27:27;8.00;;;4.67;;
15043;SDS011;7619;48.562;8.910;2023-03-16T00:29:56;9.53;;;4.90;;
15043;SDS011;7619;48.562;8.910;2023-03-16T00:32:25;8.50;;;5.23;;
15043;SDS011;7619;48.562;8.910;2023-03-16T00:34:53;7.33;;;4.80;;
15043;SDS011;7619;48.562;8.910;2023-03-16T00:37:23;8.73;;;4.67;;
15043;SDS011;7619;48.562;8.910;2023-03-16T00:39:53;6.57;;;4.47;;
15043;SDS011;7619;48.562;8.910;2023-03-16T00:42:23;8.10;;;4.57;;
15043;SDS011;7619;48.562;8.910;2023-03-16T00:44:55;6.87;;;4.20;;
15043;SDS011;7619;48.562;8.910;2023-03-16T00:47:26;10.70;;;5.13;;
15043;SDS011;7619;48.562;8.910;2023-03-16T00:49:54;7.47;;;4.37;;
15043;SDS011;7619;48.562;8.910;2023-03-16T00:52:22;6.47;;;4.37;;
15043;SDS011;7619;48.562;8.910;2023-03-16T00:54:53;6.53;;;4.20;;
15043;SDS011;7619;48.562;8.910;2023-03-16T00:57:23;7.17;;;5.00;;
15043;SDS011;7619;48.562;8.910;2023-03-16T00:59:53;12.00;;;4.60;;
15043;SDS011;7619;48.562;8.910;2023-03-16T01:02:22;9.00;;;4.93;;
15043;SDS011;7619;48.562;8.910;2023-03-16T01:04:50;9.50;;;4.97;;
15043;SDS011;7619;48.562;8.910;2023-03-16T01:07:20;6.57;;;3.87;;
15043;SDS011;7619;48.562;8.910;2023-03-16T01:09:48;8.07;;;4.17;;
15043;SDS011;7619;48.562;8.910;2023-03-16T01:12:17;7.17;;;4.43;;
15043;SDS011;7619;48.562;8.910;2023-03-16T01:14:45;6.80;;;3.93;;
15043;SDS011;7619;48.562;8.910;2023-03-16T01:17:15;5.00;;;3.43;;
15043;SDS011;7619;48.562;8.910;2023-03-16T01:19:45;5.53;;;3.97;;
15043;SDS011;7619;48.562;8.910;2023-03-16T01:22:13;5.17;;;3.83;;
15043;SDS011;7619;48.562;8.910;2023-03-16T01:24:43;6.03;;;3.80;;
15043;SDS011;7619;48.562;8.910;2023-03-16T01:27:11;6.63;;;4.57;;
15043;SDS011;7619;48.562;8.910;2023-03-16T01:29:39;7.13;;;3.70;;
15043;SDS011;7619;48.562;8.910;2023-03-16T01:32:09;6.87;;;3.97;;
15043;SDS011;7619;48.562;8.910;2023-03-16T01:34:39;6.57;;;4.40;;
15043;SDS011;7619;48.562;8.910;2023-03-16T01:37:07;7.33;;;4.27;;
15043;SDS011;7619;48.562;8.910;2023-03-16T01:39:37;7.83;;;4.63;;
15043;SDS011;7619;48.562;8.910;2023-03-16T01:42:05;11.00;;;4.93;;
15043;SDS011;7619;48.562;8.910;2023-03-16T01:44:52;7.40;;;4.73;;
15043;SDS011;7619;48.562;8.910;2023-03-16T01:47:21;4.97;;;3.53;;
15043;SDS011;7619;48.562;8.910;2023-03-16T01:49:49;6.17;;;3.93;;
15043;SDS011;7619;48.562;8.910;2023-03-16T01:52:21;9.03;;;4.07;;
15043;SDS011;7619;48.562;8.910;2023-03-16T01:54:53;6.27;;;3.87;;
15043;SDS011;7619;48.562;8.910;2023-03-16T01:57:22;5.63;;;4.17;;
15043;SDS011;7619;48.562;8.910;2023-03-16T01:59:51;9.50;;;4.37;;
15043;SDS011;7619;48.562;8.910;2023-03-16T02:02:24;9.07;;;4.60;;
15043;SDS011;7619;48.562;8.910;2023-03-16T02:04:53;5.57;;;4.17;;
15043;SDS011;7619;48.562;8.910;2023-03-16T02:07:26;7.07;;;4.47;;
15043;SDS011;7619;48.562;8.910;2023-03-16T02:09:56;6.77;;;4.67;;
15043;SDS011;7619;48.562;8.910;2023-03-16T02:12:24;5.97;;;4.27;;
15043;SDS011;7619;48.562;8.910;2023-03-16T02:14:53;8.00;;;5.67;;
15043;SDS011;7619;48.562;8.910;2023-03-16T02:17:23;8.03;;;5.83;;
15043;SDS011;7619;48.562;8.910;2023-03-16T02:19:57;15.37;;;6.17;;
15043;SDS011;7619;48.562;8.910;2023-03-16T02:22:32;11.83;;;7.47;;
15043;SDS011;7619;48.562;8.910;2023-03-16T02:25:02;17.47;;;6.40;;
15043;SDS011;7619;48.562;8.910;2023-03-16T02:27:31;8.93;;;5.63;;
15043;SDS011;7619;48.562;8.910;2023-03-16T02:30:04;16.37;;;7.07;;
15043;SDS011;7619;48.562;8.910;2023-03-16T02:32:36;24.33;;;7.27;;
15043;SDS011;7619;48.562;8.910;2023-03-16T02:35:08;13.53;;;6.77;;
15043;SDS011;7619;48.562;8.910;2023-03-16T02:37:36;16.87;;;7.77;;
15043;SDS011;7619;48.562;8.910;2023-03-16T02:40:15;23.10;;;8.03;;
15043;SDS011;7619;48.562;8.910;2023-03-16T02:42:50;17.47;;;7.53;;
15043;SDS011;7619;48.562;8.910;2023-03-16T02:45:22;13.13;;;7.23;;
15043;SDS011;7619;48.562;8.910;2023-03-16T02:47:54;15.77;;;7.97;;
15043;SDS011;7619;48.562;8.910;2023-03-16T02:50:24;15.63;;;7.63;;
15043;SDS011;7619;48.562;8.910;2023-03-16T02:52:54;13.57;;;7.90;;
15043;SDS011;7619;48.562;8.910;2023-03-16T02:55:22;25.83;;;8.03;;
15043;SDS011;7619;48.562;8.910;2023-03-16T02:57:50;15.63;;;8.17;;
15043;SDS011;7619;48.562;8.910;2023-03-16T03:00:21;15.87;;;7.90;;
15043;SDS011;7619;48.562;8.910;2023-03-16T03:02:49;15.20;;;7.90;;
15043;SDS011;7619;48.562;8.910;2023-03-16T03:05:18;22.93;;;8.37;;
15043;SDS011;7619;48.562;8.910;2023-03-16T03:07:47;11.37;;;7.30;;
15043;SDS011;7619;48.562;8.910;2023-03-16T03:10:16;12.50;;;7.43;;
15043;SDS011;7619;48.562;8.910;2023-03-16T03:12:46;16.70;;;8.00;;
15043;SDS011;7619;48.562;8.910;2023-03-16T03:15:14;15.30;;;8.03;;
15043;SDS011;7619;48.562;8.910;2023-03-16T03:17:44;10.47;;;6.90;;
15043;SDS011;7619;48.562;8.910;2023-03-16T03:20:12;18.50;;;8.17;;
15043;SDS011;7619;48.562;8.910;2023-03-16T03:22:43;11.60;;;6.63;;
15043;SDS011;7619;48.562;8.910;2023-03-16T03:25:11;10.50;;;7.77;;
15043;SDS011;7619;48.562;8.910;2023-03-16T03:27:40;10.00;;;7.27;;
15043;SDS011;7619;48.562;8.910;2023-03-16T03:30:12;12.87;;;7.37;;
15043;SDS011;7619;48.562;8.910;2023-03-16T03:32:43;13.80;;;7.50;;
15043;SDS011;7619;48.562;8.910;2023-03-16T03:35:11;14.33;;;7.23;;
15043;SDS011;7619;48.562;8.910;2023-03-16T03:37:42;10.97;;;7.10;;
15043;SDS011;7619;48.562;8.910;2023-03-16T03:40:11;27.83;;;8.27;;
15043;SDS011;7619;48.562;8.910;2023-03-16T03:42:40;13.83;;;6.60;;
15043;SDS011;7619;48.562;8.910;2023-03-16T03:45:10;21.57;;;7.87;;
15043;SDS011;7619;48.562;8.910;2023-03-16T03:47:38;12.37;;;8.13;;
15043;SDS011;7619;48.562;8.910;2023-03-16T03:50:08;11.03;;;6.43;;
15043;SDS011;7619;48.562;8.910;2023-03-16T03:52:36;10.23;;;6.97;;
15043;SDS011;7619;48.562;8.910;2023-03-16T03:55:05;12.03;;;7.40;;
15043;SDS011;7619;48.562;8.910;2023-03-16T03:57:33;43.57;;;9.20;;
15043;SDS011;7619;48.562;8.910;2023-03-16T04:00:04;12.23;;;8.80;;
15043;SDS011;7619;48.562;8.910;2023-03-16T04:02:35;15.40;;;7.93;;
15043;SDS011;7619;48.562;8.910;2023-03-16T04:05:04;14.93;;;8.13;;
15043;SDS011;7619;48.562;8.910;2023-03-16T04:07:34;16.73;;;8.60;;
15043;SDS011;7619;48.562;8.910;2023-03-16T04:10:02;18.23;;;9.70;;
15043;SDS011;7619;48.562;8.910;2023-03-16T04:12:33;15.27;;;7.93;;
15043;SDS011;7619;48.562;8.910;2023-03-16T04:15:01;12.13;;;8.33;;
15043;SDS011;7619;48.562;8.910;2023-03-16T04:17:29;10.93;;;8.33;;
15043;SDS011;7619;48.562;8.910;2023-03-16T04:19:57;13.77;;;9.27;;
15043;SDS011;7619;48.562;8.910;2023-03-16T04:22:25;33.40;;;10.60;;
15043;SDS011;7619;48.562;8.910;2023-03-16T04:24:54;29.03;;;9.80;;
15043;SDS011;7619;48.562;8.910;2023-03-16T04:27:23;19.90;;;7.83;;
15043;SDS011;7619;48.562;8.910;2023-03-16T04:29:52;19.40;;;8.53;;
15043;SDS011;7619;48.562;8.910;2023-03-16T04:32:23;24.07;;;9.17;;
15043;SDS011;7619;48.562;8.910;2023-03-16T04:34:51;25.33;;;9.37;;
15043;SDS011;7619;48.562;8.910;2023-03-16T04:37:21;13.17;;;8.43;;
15043;SDS011;7619;48.562;8.910;2023-03-16T04:39:50;17.23;;;8.70;;
15043;SDS011;7619;48.562;8.910;2023-03-16T04:42:19;14.43;;;9.30;;
15043;SDS011;7619;48.562;8.910;2023-03-16T04:44:49;27.33;;;9.47;;
15043;SDS011;7619;48.562;8.910;2023-03-16T04:47:17;22.67;;;8.83;;
15043;SDS011;7619;48.562;8.910;2023-03-16T04:49:44;16.87;;;10.43;;
15043;SDS011;7619;48.562;8.910;2023-03-16T04:52:13;23.63;;;9.93;;
15043;SDS011;7619;48.562;8.910;2023-03-16T04:54:42;15.63;;;9.73;;
15043;SDS011;7619;48.562;8.910;2023-03-16T04:57:10;22.57;;;9.47;;
15043;SDS011;7619;48.562;8.910;2023-03-16T04:59:38;24.20;;;9.43;;
15043;SDS011;7619;48.562;8.910;2023-03-16T05:02:06;17.53;;;8.80;;
15043;SDS011;7619;48.562;8.910;2023-03-16T05:04:36;12.43;;;9.23;;
15043;SDS011;7619;48.562;8.910;2023-03-16T05:07:03;13.90;;;9.20;;
15043;SDS011;7619;48.562;8.910;2023-03-16T05:09:33;25.00;;;9.90;;
15043;SDS011;7619;48.562;8.910;2023-03-16T05:12:00;23.43;;;10.70;;
15043;SDS011;7619;48.562;8.910;2023-03-16T05:14:30;25.40;;;10.37;;
15043;SDS011;7619;48.562;8.910;2023-03-16T05:16:58;17.13;;;10.20;;
15043;SDS011;7619;48.562;8.910;2023-03-16T05:19:26;20.03;;;9.50;;
15043;SDS011;7619;48.562;8.910;2023-03-16T05:21:54;22.77;;;9.33;;
15043;SDS011;7619;48.562;8.910;2023-03-16T05:24:22;30.70;;;10.10;;
15043;SDS011;7619;48.562;8.910;2023-03-16T05:26:52;37.10;;;9.27;;
15043;SDS011;7619;48.562;8.910;2023-03-16T05:29:20;21.73;;;10.07;;
15043;SDS011;7619;48.562;8.910;2023-03-16T05:31:48;24.63;;;9.40;;
15043;SDS011;7619;48.562;8.910;2023-03-16T05:34:16;23.10;;;9.23;;
15043;SDS011;7619;48.562;8.910;2023-03-16T05:36:44;21.83;;;9.10;;
15043;SDS011;7619;48.562;8.910;2023-03-16T05:39:12;30.13;;;8.97;;
15043;SDS011;7619;48.562;8.910;2023-03-16T05:41:40;27.87;;;9.77;;
15043;SDS011;7619;48.562;8.910;2023-03-16T05:44:08;15.50;;;9.27;;
15043;SDS011;7619;48.562;8.910;2023-03-16T05:46:36;16.23;;;9.73;;
15043;SDS011;7619;48.562;8.910;2023-03-16T05:49:04;15.83;;;8.97;;
15043;SDS011;7619;48.562;8.910;2023-03-16T05:51:32;20.80;;;9.50;;
15043;SDS011;7619;48.562;8.910;2023-03-16T05:54:00;20.70;;;10.47;;
15043;SDS011;7619;48.562;8.910;2023-03-16T05:56:28;20.13;;;9.63;;
15043;SDS011;7619;48.562;8.910;2023-03-16T05:58:57;23.93;;;11.00;;
15043;SDS011;7619;48.562;8.910;2023-03-16T06:01:26;21.50;;;10.03;;
15043;SDS011;7619;48.562;8.910;2023-03-16T06:03:53;21.67;;;9.57;;
15043;SDS011;7619;48.562;8.910;2023-03-16T06:06:22;15.90;;;10.13;;
15043;SDS011;7619;48.562;8.910;2023-03-16T06:08:51;18.27;;;10.03;;
15043;SDS011;7619;48.562;8.910;2023-03-16T06:11:19;18.10;;;10.50;;
15043;SDS011;7619;48.562;8.910;2023-03-16T06:13:47;27.87;;;11.00;;
15043;SDS011;7619;48.562;8.910;2023-03-16T06:16:17;28.70;;;9.43;;
15043;SDS011;7619;48.562;8.910;2023-03-16T06:18:45;15.07;;;9.43;;
15043;SDS011;7619;48.562;8.910;2023-03-16T06:21:13;12.37;;;8.10;;
15043;SDS011;7619;48.562;8.910;2023-03-16T06:23:41;20.30;;;9.40;;
15043;SDS011;7619;48.562;8.910;2023-03-16T06:26:09;21.80;;;9.77;;
15043;SDS011;7619;48.562;8.910;2023-03-16T06:28:37;17.47;;;9.57;;
15043;SDS011;7619;48.562;8.910;2023-03-16T06:31:05;18.13;;;10.80;;
15043;SDS011;7619;48.562;8.910;2023-03-16T06:33:34;20.13;;;10.77;;
15043;SDS011;7619;48.562;8.910;2023-03-16T06:36:03;17.90;;;10.27;;
15043;SDS011;7619;48.562;8.910;2023-03-16T06:38:41;16.03;;;9.40;;
15043;SDS011;7619;48.562;8.910;2023-03-16T06:41:09;24.87;;;9.57;;
15043;SDS011;7619;48.562;8.910;2023-03-16T06:43:37;14.83;;;10.30;;
15043;SDS011;7619;48.562;8.910;2023-03-16T06:46:05;14.93;;;10.10;;
15043;SDS011;7619;48.562;8.910;2023-03-16T06:48:33;13.63;;;9.63;;
15043;SDS011;7619;48.562;8.910;2023-03-16T06:51:01;18.80;;;9.53;;
15043;SDS011;7619;48.562;8.910;2023-03-16T06:53:29;38.37;;;11.60;;
15043;SDS011;7619;48.562;8.910;2023-03-16T06:55:57;16.03;;;10.57;;
15043;SDS011;7619;48.562;8.910;2023-03-16T06:58:25;16.80;;;11.10;;
15043;SDS011;7619;48.562;8.910;2023-03-16T07:00:54;17.83;;;11.03;;
15043;SDS011;7619;48.562;8.910;2023-03-16T07:03:22;19.00;;;9.87;;
15043;SDS011;7619;48.562;8.910;2023-03-16T07:05:51;13.47;;;9.13;;
15043;SDS011;7619;48.562;8.910;2023-03-16T07:08:19;14.77;;;9.53;;
15043;SDS011;7619;48.562;8.910;2023-03-16T07:10:48;17.57;;;10.37;;
15043;SDS011;7619;48.562;8.910;2023-03-16T07:13:16;25.60;;;11.43;;
15043;SDS011;7619;48.562;8.910;2023-03-16T07:15:45;21.90;;;10.40;;
15043;SDS011;7619;48.562;8.910;2023-03-16T07:18:14;27.80;;;10.53;;
15043;SDS011;7619;48.562;8.910;2023-03-16T07:20:44;19.67;;;10.40;;
15043;SDS011;7619;48.562;8.910;2023-03-16T07:23:12;18.53;;;11.27;;
15043;SDS011;7619;48.562;8.910;2023-03-16T07:25:40;20.60;;;11.70;;
15043;SDS011;7619;48.562;8.910;2023-03-16T07:28:08;18.87;;;10.33;;
15043;SDS011;7619;48.562;8.910;2023-03-16T07:30:36;19.33;;;10.17;;
15043;SDS011;7619;48.562;8.910;2023-03-16T07:33:04;16.70;;;9.90;;
15043;SDS011;7619;48.562;8.910;2023-03-16T07:35:31;16.20;;;10.53;;
15043;SDS011;7619;48.562;8.910;2023-03-16T07:38:00;17.53;;;10.43;;
15043;SDS011;7619;48.562;8.910;2023-03-16T07:40:30;17.20;;;10.73;;
15043;SDS011;7619;48.562;8.910;2023-03-16T07:43:00;29.87;;;10.57;;
15043;SDS011;7619;48.562;8.910;2023-03-16T07:45:28;13.27;;;9.80;;
15043;SDS011;7619;48.562;8.910;2023-03-16T07:47:56;15.27;;;11.17;;
15043;SDS011;7619;48.562;8.910;2023-03-16T07:50:26;18.43;;;11.30;;
15043;SDS011;7619;48.562;8.910;2023-03-16T07:52:54;17.60;;;10.53;;
15043;SDS011;7619;48.562;8.910;2023-03-16T07:55:22;18.77;;;10.00;;
15043;SDS011;7619;48.562;8.910;2023-03-16T07:57:50;13.20;;;9.27;;
15043;SDS011;7619;48.562;8.910;2023-03-16T08:00:19;20.67;;;10.13;;
15043;SDS011;7619;48.562;8.910;2023-03-16T08:02:49;12.77;;;9.87;;
15043;SDS011;7619;48.562;8.910;2023-03-16T08:05:17;16.37;;;10.43;;
15043;SDS011;7619;48.562;8.910;2023-03-16T08:07:46;15.70;;;10.40;;
15043;SDS011;7619;48.562;8.910;2023-03-16T08:10:16;13.70;;;9.10;;
15043;SDS011;7619;48.562;8.910;2023-03-16T08:12:44;14.93;;;9.90;;
15043;SDS011;7619;48.562;8.910;2023-03-16T08:17:49;17.47;;;9.33;;
15043;SDS011;7619;48.562;8.910;2023-03-16T08:20:19;13.53;;;10.00;;
15043;SDS011;7619;48.562;8.910;2023-03-16T08:22:48;12.73;;;9.40;;
15043;SDS011;7619;48.562;8.910;2023-03-16T08:25:17;14.03;;;9.20;;
15043;SDS011;7619;48.562;8.910;2023-03-16T08:27:47;13.77;;;10.00;;
15043;SDS011;7619;48.562;8.910;2023-03-16T08:30:16;20.93;;;11.40;;
15043;SDS011;7619;48.562;8.910;2023-03-16T08:32:48;13.43;;;10.17;;
15043;SDS011;7619;48.562;8.910;2023-03-16T08:35:16;15.80;;;11.37;;
15043;SDS011;7619;48.562;8.910;2023-03-16T08:37:44;13.17;;;9.97;;
15043;SDS011;7619;48.562;8.910;2023-03-16T08:40:13;12.17;;;8.07;;
15043;SDS011;7619;48.562;8.910;2023-03-16T08:42:43;10.80;;;7.83;;
15043;SDS011;7619;48.562;8.910;2023-03-16T08:45:11;8.27;;;6.73;;
15043;SDS011;7619;48.562;8.910;2023-03-16T08:47:40;9.67;;;7.17;;
15043;SDS011;7619;48.562;8.910;2023-03-16T08:50:09;8.17;;;6.10;;
15043;SDS011;7619;48.562;8.910;2023-03-16T08:52:38;6.77;;;5.57;;
15043;SDS011;7619;48.562;8.910;2023-03-16T08:55:09;7.07;;;5.70;;
15043;SDS011;7619;48.562;8.910;2023-03-16T08:57:37;7.73;;;5.27;;
15043;SDS011;7619;48.562;8.910;2023-03-16T09:00:06;5.83;;;5.20;;
15043;SDS011;7619;48.562;8.910;2023-03-16T09:02:39;5.43;;;2.77;;
15043;SDS011;7619;48.562;8.910;2023-03-16T09:05:08;4.73;;;3.47;;
15043;SDS011;7619;48.562;8.910;2023-03-16T09:07:38;5.03;;;4.00;;
15043;SDS011;7619;48.562;8.910;2023-03-16T09:10:10;4.77;;;4.30;;
15043;SDS011;7619;48.562;8.910;2023-03-16T09:12:41;4.43;;;4.03;;
15043;SDS011;7619;48.562;8.910;2023-03-16T09:15:10;4.57;;;4.17;;
15043;SDS011;7619;48.562;8.910;2023-03-16T09:17:39;4.00;;;3.70;;
15043;SDS011;7619;48.562;8.910;2023-03-16T09:20:11;5.87;;;4.10;;
15043;SDS011;7619;48.562;8.910;2023-03-16T09:22:43;3.80;;;3.37;;
15043;SDS011;7619;48.562;8.910;2023-03-16T09:25:22;4.07;;;3.63;;
15043;SDS011;7619;48.562;8.910;2023-03-16T09:27:51;4.23;;;3.60;;
15043;SDS011;7619;48.562;8.910;2023-03-16T09:30:20;4.83;;;3.87;;
15043;SDS011;7619;48.562;8.910;2023-03-16T09:32:48;4.17;;;3.53;;
15043;SDS011;7619;48.562;8.910;2023-03-16T09:35:16;3.53;;;3.20;;
15043;SDS011;7619;48.562;8.910;2023-03-16T09:37:45;4.13;;;3.13;;
15043;SDS011;7619;48.562;8.910;2023-03-16T09:40:18;3.63;;;3.33;;
15043;SDS011;7619;48.562;8.910;2023-03-16T09:42:53;4.23;;;3.83;;
15043;SDS011;7619;48.562;8.910;2023-03-16T09:45:30;5.57;;;4.53;;
15043;SDS011;7619;48.562;8.910;2023-03-16T09:48:08;4.43;;;3.97;;
15043;SDS011;7619;48.562;8.910;2023-03-16T09:50:38;4.10;;;3.03;;
15043;SDS011;7619;48.562;8.910;2023-03-16T09:53:11;4.57;;;3.60;;
15043;SDS011;7619;48.562;8.910;2023-03-16T09:55:40;4.23;;;3.47;;
15043;SDS011;7619;48.562;8.910;2023-03-16T09:58:11;3.87;;;3.13;;
15043;SDS011;7619;48.562;8.910;2023-03-16T10:00:45;2.70;;;2.50;;
15043;SDS011;7619;48.562;8.910;2023-03-16T10:03:16;5.30;;;2.30;;
15043;SDS011;7619;48.562;8.910;2023-03-16T10:05:44;4.10;;;3.10;;
15043;SDS011;7619;48.562;8.910;2023-03-16T10:08:19;4.40;;;2.87;;
15043;SDS011;7619;48.562;8.910;2023-03-16T10:10:54;4.90;;;2.60;;
15043;SDS011;7619;48.562;8.910;2023-03-16T10:13:26;2.90;;;2.60;;
15043;SDS011;7619;48.562;8.910;2023-03-16T10:15:52;5.90;;;2.37;;
15043;SDS011;7619;48.562;8.910;2023-03-16T10:18:24;3.70;;;2.60;;
15043;SDS011;7619;48.562;8.910;2023-03-16T10:20:56;5.47;;;2.90;;
15043;SDS011;7619;48.562;8.910;2023-03-16T10:23:24;3.77;;;2.40;;
15043;SDS011;7619;48.562;8.910;2023-03-16T10:25:54;3.43;;;2.93;;
15043;SDS011;7619;48.562;8.910;2023-03-16T10:28:22;3.33;;;2.70;;
15043;SDS011;7619;48.562;8.910;2023-03-16T10:31:01;3.30;;;2.53;;
15043;SDS011;7619;48.562;8.910;2023-03-16T10:33:30;5.17;;;2.47;;
15043;SDS011;7619;48.562;8.910;2023-03-16T10:36:00;5.17;;;2.40;;
15043;SDS011;7619;48.562;8.910;2023-03-16T10:38:32;2.60;;;2.40;;
15043;SDS011;7619;48.562;8.910;2023-03-16T10:41:17;4.17;;;2.80;;
15043;SDS011;7619;48.562;8.910;2023-03-16T10:43:51;3.83;;;2.33;;
15043;SDS011;7619;48.562;8.910;2023-03-16T10:46:36;4.20;;;2.23;;
15043;SDS011;7619;48.562;8.910;2023-03-16T10:48:59;2.80;;;2.60;;
15043;SDS011;7619;48.562;8.910;2023-03-16T10:51:29;1.70;;;1.60;;
15043;SDS011;7619;48.562;8.910;2023-03-16T10:54:06;4.60;;;2.87;;
15043;SDS011;7619;48.562;8.910;2023-03-16T10:56:36;2.40;;;2.20;;
15043;SDS011;7619;48.562;8.910;2023-03-16T10:59:15;2.77;;;2.10;;
15043;SDS011;7619;48.562;8.910;2023-03-16T11:01:51;2.97;;;1.77;;
15043;SDS011;7619;48.562;8.910;2023-03-16T11:04:21;2.17;;;1.83;;
15043;SDS011;7619;48.562;8.910;2023-03-16T11:06:51;1.47;;;1.37;;
15043;SDS011;7619;48.562;8.910;2023-03-16T11:09:25;3.13;;;1.63;;
15043;SDS011;7619;48.562;8.910;2023-03-16T11:12:13;2.20;;;1.53;;
15043;SDS011;7619;48.562;8.910;2023-03-16T11:14:49;3.37;;;2.00;;
15043;SDS011;7619;48.562;8.910;2023-03-16T11:17:22;3.40;;;2.37;;
15043;SDS011;7619;48.562;8.910;2023-03-16T11:20:03;2.20;;;1.93;;
15043;SDS011;7619;48.562;8.910;2023-03-16T11:22:36;1.67;;;1.50;;
15043;SDS011;7619;48.562;8.910;2023-03-16T11:25:08;1.37;;;1.27;;
15043;SDS011;7619;48.562;8.910;2023-03-16T11:27:37;2.97;;;1.30;;
15043;SDS011;7619;48.562;8.910;2023-03-16T11:30:08;6.43;;;2.20;;
15043;SDS011;7619;48.562;8.910;2023-03-16T11:32:42;1.53;;;1.43;;
15043;SDS011;7619;48.562;8.910;2023-03-16T11:35:15;1.80;;;1.50;;
15043;SDS011;7619;48.562;8.910;2023-03-16T11:37:49;1.87;;;1.50;;
15043;SDS011;7619;48.562;8.910;2023-03-16T11:40:23;1.40;;;1.30;;
15043;SDS011;7619;48.562;8.910;2023-03-16T11:42:52;2.10;;;1.60;;
15043;SDS011;7619;48.562;8.910;2023-03-16T11:45:22;1.70;;;1.60;;
15043;SDS011;7619;48.562;8.910;2023-03-16T11:48:00;1.40;;;1.27;;
15043;SDS011;7619;48.562;8.910;2023-03-16T11:50:29;1.40;;;1.20;;
15043;SDS011;7619;48.562;8.910;2023-03-16T11:53:12;1.90;;;1.13;;
15043;SDS011;7619;48.562;8.910;2023-03-16T11:55:41;2.13;;;1.77;;
15043;SDS011;7619;48.562;8.910;2023-03-16T11:58:26;2.27;;;1.30;;
15043;SDS011;7619;48.562;8.910;2023-03-16T12:01:00;2.70;;;1.37;;
15043;SDS011;7619;48.562;8.910;2023-03-16T12:03:40;2.80;;;1.73;;
15043;SDS011;7619;48.562;8.910;2023-03-16T12:06:49;1.53;;;1.37;;
15043;SDS011;7619;48.562;8.910;2023-03-16T12:09:31;1.80;;;1.33;;
15043;SDS011;7619;48.562;8.910;2023-03-16T12:12:00;2.33;;;1.23;;
15043;SDS011;7619;48.562;8.910;2023-03-16T12:14:31;2.33;;;1.40;;
15043;SDS011;7619;48.562;8.910;2023-03-16T12:17:02;1.20;;;1.10;;
15043;SDS011;7619;48.562;8.910;2023-03-16T12:19:38;2.03;;;1.10;;
15043;SDS011;7619;48.562;8.910;2023-03-16T12:22:06;1.70;;;1.20;;
15043;SDS011;7619;48.562;8.910;2023-03-16T12:24:41;1.67;;;1.47;;
15043;SDS011;7619;48.562;8.910;2023-03-16T12:27:14;2.97;;;1.40;;
15043;SDS011;7619;48.562;8.910;2023-03-16T12:29:51;1.20;;;1.10;;
15043;SDS011;7619;48.562;8.910;2023-03-16T12:32:20;1.53;;;1.13;;
15043;SDS011;7619;48.562;8.910;2023-03-16T12:37:32;1.90;;;1.20;;
15043;SDS011;7619;48.562;8.910;2023-03-16T12:40:08;0.97;;;0.97;;
15043;SDS011;7619;48.562;8.910;2023-03-16T12:43:01;2.40;;;1.00;;
15043;SDS011;7619;48.562;8.910;2023-03-16T12:45:37;1.20;;;1.10;;
15043;SDS011;7619;48.562;8.910;2023-03-16T12:48:09;2.90;;;1.07;;
15043;SDS011;7619;48.562;8.910;2023-03-16T12:50:47;1.13;;;1.07;;
15043;SDS011;7619;48.562;8.910;2023-03-16T12:53:27;5.63;;;1.43;;
15043;SDS011;7619;48.562;8.910;2023-03-16T12:55:56;1.00;;;0.97;;
15043;SDS011;7619;48.562;8.910;2023-03-16T12:58:24;2.47;;;1.03;;
15043;SDS011;7619;48.562;8.910;2023-03-16T13:00:57;1.00;;;0.90;;
15043;SDS011;7619;48.562;8.910;2023-03-16T13:03:26;0.70;;;0.70;;
15043;SDS011;7619;48.562;8.910;2023-03-16T13:06:06;1.30;;;0.80;;
15043;SDS011;7619;48.562;8.910;2023-03-16T13:08:42;1.10;;;0.70;;
15043;SDS011;7619;48.562;8.910;2023-03-16T13:11:13;1.17;;;0.90;;
15043;SDS011;7619;48.562;8.910;2023-03-16T13:13:50;0.83;;;0.83;;
15043;SDS011;7619;48.562;8.910;2023-03-16T13:16:25;1.80;;;0.80;;
15043;SDS011;7619;48.562;8.910;2023-03-16T13:18:55;2.70;;;1.07;;
15043;SDS011;7619;48.562;8.910;2023-03-16T13:21:34;1.70;;;0.90;;
15043;SDS011;7619;48.562;8.910;2023-03-16T13:24:13;3.13;;;1.10;;
15043;SDS011;7619;48.562;8.910;2023-03-16T13:29:22;1.90;;;1.10;;
15043;SDS011;7619;48.562;8.910;2023-03-16T13:31:51;1.63;;;0.90;;
15043;SDS011;7619;48.562;8.910;2023-03-16T13:34:22;1.03;;;0.80;;
15043;SDS011;7619;48.562;8.910;2023-03-16T13:36:53;0.77;;;0.73;;
15043;SDS011;7619;48.562;8.910;2023-03-16T13:39:25;0.47;;;0.47;;
15043;SDS011;7619;48.562;8.910;2023-03-16T13:41:57;0.60;;;0.60;;
15043;SDS011;7619;48.562;8.910;2023-03-16T13:44:29;2.40;;;0.77;;
15043;SDS011;7619;48.562;8.910;2023-03-16T13:47:00;0.77;;;0.70;;
15043;SDS011;7619;48.562;8.910;2023-03-16T13:49:26;0.97;;;0.77;;
15043;SDS011;7619;48.562;8.910;2023-03-16T13:51:55;2.00;;;0.80;;
15043;SDS011;7619;48.562;8.910;2023-03-16T13:54:23;0.77;;;0.77;;
15043;SDS011;7619;48.562;8.910;2023-03-16T13:56:55;1.07;;;0.80;;
15043;SDS011;7619;48.562;8.910;2023-03-16T13:59:27;0.60;;;0.57;;
15043;SDS011;7619;48.562;8.910;2023-03-16T14:01:55;6.67;;;0.70;;
15043;SDS011;7619;48.562;8.910;2023-03-16T14:04:24;0.80;;;0.80;;
15043;SDS011;7619;48.562;8.910;2023-03-16T14:07:02;0.97;;;0.80;;
15043;SDS011;7619;48.562;8.910;2023-03-16T14:12:10;3.80;;;0.73;;
15043;SDS011;7619;48.562;8.910;2023-03-16T14:14:44;1.83;;;0.70;;
15043;SDS011;7619;48.562;8.910;2023-03-16T14:17:12;1.60;;;0.87;;
15043;SDS011;7619;48.562;8.910;2023-03-16T14:19:45;0.83;;;0.70;;
15043;SDS011;7619;48.562;8.910;2023-03-16T14:22:14;3.17;;;0.80;;
15043;SDS011;7619;48.562;8.910;2023-03-16T14:24:42;1.37;;;0.70;;
15043;SDS011;7619;48.562;8.910;2023-03-16T14:27:18;0.60;;;0.60;;
15043;SDS011;7619;48.562;8.910;2023-03-16T14:29:55;1.20;;;0.70;;
15043;SDS011;7619;48.562;8.910;2023-03-16T14:32:24;0.87;;;0.80;;
15043;SDS011;7619;48.562;8.910;2023-03-16T14:35:00;0.50;;;0.50;;
15043;SDS011;7619;48.562;8.910;2023-03-16T14:37:35;0.57;;;0.57;;
15043;SDS011;7619;48.562;8.910;2023-03-16T14:40:07;1.07;;;0.97;;
15043;SDS011;7619;48.562;8.910;2023-03-16T14:42:49;0.83;;;0.70;;
15043;SDS011;7619;48.562;8.910;2023-03-16T14:45:19;0.73;;;0.67;;
15043;SDS011;7619;48.562;8.910;2023-03-16T14:47:49;2.10;;;0.70;;
15043;SDS011;7619;48.562;8.910;2023-03-16T14:50:22;0.77;;;0.73;;
15043;SDS011;7619;48.562;8.910;2023-03-16T14:52:50;1.60;;;0.80;;
15043;SDS011;7619;48.562;8.910;2023-03-16T14:55:23;0.70;;;0.70;;
15043;SDS011;7619;48.562;8.910;2023-03-16T14:57:51;0.90;;;0.70;;
15043;SDS011;7619;48.562;8.910;2023-03-16T15:00:20;1.40;;;0.90;;
15043;SDS011;7619;48.562;8.910;2023-03-16T15:02:52;2.07;;;1.13;;
15043;SDS011;7619;48.562;8.910;2023-03-16T15:05:20;0.77;;;0.77;;
15043;SDS011;7619;48.562;8.910;2023-03-16T15:07:52;0.63;;;0.63;;
15043;SDS011;7619;48.562;8.910;2023-03-16T15:10:23;1.27;;;0.77;;
15043;SDS011;7619;48.562;8.910;2023-03-16T15:12:54;4.97;;;0.90;;
15043;SDS011;7619;48.562;8.910;2023-03-16T15:15:24;1.47;;;1.20;;
15043;SDS011;7619;48.562;8.910;2023-03-16T15:17:54;1.90;;;1.17;;
15043;SDS011;7619;48.562;8.910;2023-03-16T15:20:23;1.20;;;1.00;;
15043;SDS011;7619;48.562;8.910;2023-03-16T15:22:57;2.43;;;1.60;;